sensor_id;sensor_type;location;lat;lon;timestamp;pressure;altitude;pressure_sealevel;temperature;humidity
63708;BME280;67643;-34.198;22.084;2023-02-12T00:06:30;99353.31;;;20.89;58.03
63708;BME280;67643;-34.198;22.084;2023-02-12T00:08:59;99351.26;;;22.10;53.29
63708;BME280;67643;-34.198;22.084;2023-02-12T00:11:28;99349.15;;;22.67;51.00
63708;BME280;67643;-34.198;22.084;2023-02-12T00:13:57;99350.89;;;23.60;49.18
63708;BME280;67643;-34.198;22.084;2023-02-12T00:16:28;99348.87;;;23.19;48.89
63708;BME280;67643;-34.198;22.084;2023-02-12T00:18:57;99345.76;;;23.41;48.11
63708;BME280;67643;-34.198;22.084;2023-02-12T00:21:26;99348.11;;;23.64;48.04
63708;BME280;67643;-34.198;22.084;2023-02-12T00:23:55;99347.33;;;23.23;47.93
63708;BME280;67643;-34.198;22.084;2023-02-12T00:26:23;99352.50;;;23.94;47.18
63708;BME280;67643;-34.198;22.084;2023-02-12T00:28:52;99346.42;;;24.10;47.23
63708;BME280;67643;-34.198;22.084;2023-02-12T00:31:23;99349.82;;;24.13;46.40
63708;BME280;67643;-34.198;22.084;2023-02-12T00:33:52;99350.47;;;24.13;46.82
63708;BME280;67643;-34.198;22.084;2023-02-12T00:36:24;99348.35;;;24.03;46.96
63708;BME280;67643;-34.198;22.084;2023-02-12T00:38:54;99347.82;;;23.64;47.56
63708;BME280;67643;-34.198;22.084;2023-02-12T00:41:23;99353.24;;;23.16;48.48
63708;BME280;67643;-34.198;22.084;2023-02-12T00:43:52;99352.96;;;22.57;49.62
63708;BME280;67643;-34.198;22.084;2023-02-12T00:46:20;99352.68;;;22.27;50.14
63708;BME280;67643;-34.198;22.084;2023-02-12T00:48:49;99352.53;;;22.25;50.11
63708;BME280;67643;-34.198;22.084;2023-02-12T00:51:17;99356.59;;;22.40;50.33
63708;BME280;67643;-34.198;22.084;2023-02-12T00:53:45;99357.28;;;22.70;49.93
63708;BME280;67643;-34.198;22.084;2023-02-12T00:56:14;99356.38;;;22.44;50.56
63708;BME280;67643;-34.198;22.084;2023-02-12T00:58:42;99352.71;;;23.33;48.57
63708;BME280;67643;-34.198;22.084;2023-02-12T01:01:11;99351.14;;;23.20;49.06
63708;BME280;67643;-34.198;22.084;2023-02-12T01:03:39;99345.60;;;22.66;49.50
63708;BME280;67643;-34.198;22.084;2023-02-12T01:06:08;99342.91;;;22.68;49.58
63708;BME280;67643;-34.198;22.084;2023-02-12T01:08:37;99342.18;;;23.82;47.49
63708;BME280;67643;-34.198;22.084;2023-02-12T01:11:06;99343.28;;;24.09;46.85
63708;BME280;67643;-34.198;22.084;2023-02-12T01:13:35;99340.52;;;24.12;46.33
63708;BME280;67643;-34.198;22.084;2023-02-12T01:16:05;99339.97;;;24.09;47.12
63708;BME280;67643;-34.198;22.084;2023-02-12T01:18:35;99339.44;;;24.26;46.12
63708;BME280;67643;-34.198;22.084;2023-02-12T01:21:09;99332.75;;;24.25;46.52
63708;BME280;67643;-34.198;22.084;2023-02-12T01:23:38;99337.83;;;24.63;46.21
63708;BME280;67643;-34.198;22.084;2023-02-12T01:26:06;99336.36;;;24.52;46.05
63708;BME280;67643;-34.198;22.084;2023-02-12T01:28:34;99335.27;;;24.33;46.81
63708;BME280;67643;-34.198;22.084;2023-02-12T01:31:08;99338.37;;;24.29;46.49
63708;BME280;67643;-34.198;22.084;2023-02-12T01:33:36;99339.91;;;23.96;46.63
63708;BME280;67643;-34.198;22.084;2023-02-12T01:36:05;99345.15;;;23.67;47.62
63708;BME280;67643;-34.198;22.084;2023-02-12T01:38:34;99348.75;;;23.85;47.25
63708;BME280;67643;-34.198;22.084;2023-02-12T01:41:03;99354.72;;;24.12;46.76
63708;BME280;67643;-34.198;22.084;2023-02-12T01:43:34;99355.33;;;23.95;46.57
63708;BME280;67643;-34.198;22.084;2023-02-12T01:46:03;99360.25;;;24.29;46.42
63708;BME280;67643;-34.198;22.084;2023-02-12T01:48:34;99360.96;;;24.42;46.19
63708;BME280;67643;-34.198;22.084;2023-02-12T01:51:04;99362.34;;;24.10;46.47
63708;BME280;67643;-34.198;22.084;2023-02-12T01:53:36;99364.73;;;23.54;46.80
63708;BME280;67643;-34.198;22.084;2023-02-12T01:56:05;99372.77;;;23.37;47.39
63708;BME280;67643;-34.198;22.084;2023-02-12T01:58:37;99370.84;;;23.75;46.72
63708;BME280;67643;-34.198;22.084;2023-02-12T02:01:12;99372.11;;;23.05;47.52
63708;BME280;67643;-34.198;22.084;2023-02-12T02:03:42;99373.56;;;23.14;47.57
63708;BME280;67643;-34.198;22.084;2023-02-12T02:06:13;99371.25;;;22.71;47.51
63708;BME280;67643;-34.198;22.084;2023-02-12T02:08:43;99376.01;;;22.38;48.26
63708;BME280;67643;-34.198;22.084;2023-02-12T02:11:12;99370.73;;;21.96;48.84
63708;BME280;67643;-34.198;22.084;2023-02-12T02:13:40;99368.80;;;22.30;48.65
63708;BME280;67643;-34.198;22.084;2023-02-12T02:16:16;99369.66;;;22.72;48.04
63708;BME280;67643;-34.198;22.084;2023-02-12T02:18:52;99367.14;;;22.40;48.49
63708;BME280;67643;-34.198;22.084;2023-02-12T02:22:31;99363.36;;;23.30;47.09
63708;BME280;67643;-34.198;22.084;2023-02-12T02:25:22;99361.03;;;24.10;45.80
63708;BME280;67643;-34.198;22.084;2023-02-12T02:28:17;99363.66;;;23.97;45.92
63708;BME280;67643;-34.198;22.084;2023-02-12T02:30:53;99369.67;;;24.31;45.00
63708;BME280;67643;-34.198;22.084;2023-02-12T02:33:31;99371.23;;;24.43;45.12
63708;BME280;67643;-34.198;22.084;2023-02-12T02:36:13;99375.24;;;24.27;45.02
63708;BME280;67643;-34.198;22.084;2023-02-12T02:38:47;99377.14;;;24.31;44.92
63708;BME280;67643;-34.198;22.084;2023-02-12T02:41:21;99378.16;;;24.17;45.11
63708;BME280;67643;-34.198;22.084;2023-02-12T02:43:53;99382.50;;;24.76;44.27
63708;BME280;67643;-34.198;22.084;2023-02-12T02:46:29;99379.95;;;24.28;44.47
63708;BME280;67643;-34.198;22.084;2023-02-12T02:49:00;99385.40;;;24.70;44.60
63708;BME280;67643;-34.198;22.084;2023-02-12T02:51:33;99385.30;;;23.49;45.72
63708;BME280;67643;-34.198;22.084;2023-02-12T02:54:07;99391.10;;;24.15;44.80
63708;BME280;67643;-34.198;22.084;2023-02-12T02:56:38;99392.34;;;24.37;45.21
63708;BME280;67643;-34.198;22.084;2023-02-12T02:59:10;99393.87;;;23.87;45.26
63708;BME280;67643;-34.198;22.084;2023-02-12T03:01:43;99394.26;;;23.86;45.40
63708;BME280;67643;-34.198;22.084;2023-02-12T03:04:16;99399.29;;;24.07;45.46
63708;BME280;67643;-34.198;22.084;2023-02-12T03:06:49;99399.90;;;24.08;45.64
63708;BME280;67643;-34.198;22.084;2023-02-12T03:09:22;99400.91;;;23.69;46.02
63708;BME280;67643;-34.198;22.084;2023-02-12T03:11:56;99405.10;;;23.91;46.38
63708;BME280;67643;-34.198;22.084;2023-02-12T03:14:28;99410.50;;;23.91;46.96
63708;BME280;67643;-34.198;22.084;2023-02-12T03:17:02;99413.42;;;23.62;47.29
63708;BME280;67643;-34.198;22.084;2023-02-12T03:19:35;99416.84;;;24.21;46.88
63708;BME280;67643;-34.198;22.084;2023-02-12T03:22:08;99417.55;;;23.81;47.26
63708;BME280;67643;-34.198;22.084;2023-02-12T03:24:42;99419.54;;;24.15;47.14
63708;BME280;67643;-34.198;22.084;2023-02-12T03:27:16;99421.51;;;23.84;47.62
63708;BME280;67643;-34.198;22.084;2023-02-12T03:29:47;99425.57;;;24.15;47.03
63708;BME280;67643;-34.198;22.084;2023-02-12T03:32:25;99431.55;;;24.20;46.81
63708;BME280;67643;-34.198;22.084;2023-02-12T03:35:08;99434.34;;;24.30;46.54
63708;BME280;67643;-34.198;22.084;2023-02-12T03:37:41;99438.02;;;23.85;46.86
63708;BME280;67643;-34.198;22.084;2023-02-12T03:40:22;99439.48;;;23.58;46.70
63708;BME280;67643;-34.198;22.084;2023-02-12T03:42:58;99444.73;;;23.71;46.66
63708;BME280;67643;-34.198;22.084;2023-02-12T03:45:41;99453.57;;;23.92;46.19
63708;BME280;67643;-34.198;22.084;2023-02-12T03:48:18;99457.10;;;24.02;45.57
63708;BME280;67643;-34.198;22.084;2023-02-12T03:50:53;99461.31;;;23.82;45.68
63708;BME280;67643;-34.198;22.084;2023-02-12T03:53:25;99463.12;;;23.21;46.38
63708;BME280;67643;-34.198;22.084;2023-02-12T03:55:58;99461.90;;;23.67;45.96
63708;BME280;67643;-34.198;22.084;2023-02-12T03:58:33;99467.14;;;23.25;46.27
63708;BME280;67643;-34.198;22.084;2023-02-12T04:01:03;99475.30;;;23.36;45.94
63708;BME280;67643;-34.198;22.084;2023-02-12T04:03:33;99476.98;;;23.78;45.73
63708;BME280;67643;-34.198;22.084;2023-02-12T04:06:02;99486.26;;;24.10;45.23
63708;BME280;67643;-34.198;22.084;2023-02-12T04:08:31;99490.69;;;24.12;45.64
63708;BME280;67643;-34.198;22.084;2023-02-12T04:11:10;99495.96;;;23.85;45.86
63708;BME280;67643;-34.198;22.084;2023-02-12T04:13:44;99502.68;;;23.76;46.26
63708;BME280;67643;-34.198;22.084;2023-02-12T04:16:24;99510.22;;;23.68;46.97
63708;BME280;67643;-34.198;22.084;2023-02-12T04:18:54;99517.23;;;23.33;47.25
63708;BME280;67643;-34.198;22.084;2023-02-12T04:21:40;99523.00;;;23.16;47.18
63708;BME280;67643;-34.198;22.084;2023-02-12T04:24:17;99526.95;;;23.24;47.13
63708;BME280;67643;-34.198;22.084;2023-02-12T04:26:51;99533.79;;;23.56;46.66
63708;BME280;67643;-34.198;22.084;2023-02-12T04:29:27;99539.13;;;23.78;46.69
63708;BME280;67643;-34.198;22.084;2023-02-12T04:32:04;99541.77;;;23.73;46.81
63708;BME280;67643;-34.198;22.084;2023-02-12T04:34:42;99546.23;;;23.46;46.86
63708;BME280;67643;-34.198;22.084;2023-02-12T04:37:17;99550.56;;;23.45;46.86
63708;BME280;67643;-34.198;22.084;2023-02-12T04:39:47;99556.21;;;23.65;46.60
63708;BME280;67643;-34.198;22.084;2023-02-12T04:42:17;99561.45;;;23.80;46.48
63708;BME280;67643;-34.198;22.084;2023-02-12T04:44:46;99561.02;;;24.13;45.91
63708;BME280;67643;-34.198;22.084;2023-02-12T04:47:15;99561.59;;;24.17;46.45
63708;BME280;67643;-34.198;22.084;2023-02-12T04:49:44;99563.33;;;23.46;47.28
63708;BME280;67643;-34.198;22.084;2023-02-12T04:52:12;99567.99;;;23.55;47.13
63708;BME280;67643;-34.198;22.084;2023-02-12T04:54:40;99573.13;;;24.07;46.75
63708;BME280;67643;-34.198;22.084;2023-02-12T04:57:09;99581.51;;;24.09;46.80
63708;BME280;67643;-34.198;22.084;2023-02-12T04:59:38;99586.46;;;23.95;46.63
63708;BME280;67643;-34.198;22.084;2023-02-12T05:02:06;99588.97;;;24.14;46.75
63708;BME280;67643;-34.198;22.084;2023-02-12T05:04:34;99593.71;;;23.84;46.88
63708;BME280;67643;-34.198;22.084;2023-02-12T05:07:02;99595.93;;;23.82;47.08
63708;BME280;67643;-34.198;22.084;2023-02-12T05:09:31;99598.73;;;23.92;47.35
63708;BME280;67643;-34.198;22.084;2023-02-12T05:12:00;99604.97;;;24.07;46.81
63708;BME280;67643;-34.198;22.084;2023-02-12T05:14:28;99604.84;;;24.11;46.82
63708;BME280;67643;-34.198;22.084;2023-02-12T05:16:56;99607.79;;;24.26;46.96
63708;BME280;67643;-34.198;22.084;2023-02-12T05:19:24;99610.32;;;24.32;46.48
63708;BME280;67643;-34.198;22.084;2023-02-12T05:21:52;99607.88;;;24.42;46.32
63708;BME280;67643;-34.198;22.084;2023-02-12T05:24:21;99609.55;;;23.99;46.97
63708;BME280;67643;-34.198;22.084;2023-02-12T05:26:50;99616.61;;;23.97;46.87
63708;BME280;67643;-34.198;22.084;2023-02-12T05:29:19;99619.94;;;24.07;47.11
63708;BME280;67643;-34.198;22.084;2023-02-12T05:31:48;99624.76;;;24.31;46.75
63708;BME280;67643;-34.198;22.084;2023-02-12T05:34:16;99626.87;;;24.67;46.29
63708;BME280;67643;-34.198;22.084;2023-02-12T05:36:45;99633.83;;;24.59;46.52
63708;BME280;67643;-34.198;22.084;2023-02-12T05:39:13;99636.10;;;24.24;47.32
63708;BME280;67643;-34.198;22.084;2023-02-12T05:41:41;99640.98;;;24.39;47.15
63708;BME280;67643;-34.198;22.084;2023-02-12T05:44:10;99641.45;;;23.66;48.13
63708;BME280;67643;-34.198;22.084;2023-02-12T05:46:39;99647.39;;;23.35;48.91
63708;BME280;67643;-34.198;22.084;2023-02-12T05:49:08;99649.42;;;23.64;48.90
63708;BME280;67643;-34.198;22.084;2023-02-12T05:51:36;99656.15;;;23.74;48.88
63708;BME280;67643;-34.198;22.084;2023-02-12T05:54:06;99659.32;;;23.23;49.92
63708;BME280;67643;-34.198;22.084;2023-02-12T05:56:38;99661.55;;;23.22;49.96
63708;BME280;67643;-34.198;22.084;2023-02-12T05:59:13;99663.45;;;23.34;49.73
63708;BME280;67643;-34.198;22.084;2023-02-12T06:01:43;99665.94;;;23.56;49.40
63708;BME280;67643;-34.198;22.084;2023-02-12T06:04:15;99670.48;;;22.73;50.11
63708;BME280;67643;-34.198;22.084;2023-02-12T06:06:43;99673.20;;;23.83;48.64
63708;BME280;67643;-34.198;22.084;2023-02-12T06:09:13;99680.11;;;24.23;47.91
63708;BME280;67643;-34.198;22.084;2023-02-12T06:11:42;99683.99;;;23.66;48.69
63708;BME280;67643;-34.198;22.084;2023-02-12T06:14:14;99684.01;;;23.71;48.58
63708;BME280;67643;-34.198;22.084;2023-02-12T06:16:45;99691.23;;;24.79;47.15
63708;BME280;67643;-34.198;22.084;2023-02-12T06:19:14;99694.84;;;25.12;46.21
63708;BME280;67643;-34.198;22.084;2023-02-12T06:21:43;99696.99;;;23.88;48.18
63708;BME280;67643;-34.198;22.084;2023-02-12T06:24:13;99703.65;;;24.44;46.92
63708;BME280;67643;-34.198;22.084;2023-02-12T06:26:42;99705.44;;;24.45;46.84
63708;BME280;67643;-34.198;22.084;2023-02-12T06:29:10;99711.28;;;25.27;46.26
63708;BME280;67643;-34.198;22.084;2023-02-12T06:31:38;99708.93;;;24.58;46.91
63708;BME280;67643;-34.198;22.084;2023-02-12T06:34:09;99710.05;;;24.10;47.47
63708;BME280;67643;-34.198;22.084;2023-02-12T06:36:40;99710.71;;;24.65;47.22
63708;BME280;67643;-34.198;22.084;2023-02-12T06:39:09;99712.90;;;24.82;47.11
63708;BME280;67643;-34.198;22.084;2023-02-12T06:41:37;99709.33;;;23.51;48.53
63708;BME280;67643;-34.198;22.084;2023-02-12T06:44:06;99711.31;;;23.98;47.94
63708;BME280;67643;-34.198;22.084;2023-02-12T06:46:35;99713.06;;;25.04;46.29
63708;BME280;67643;-34.198;22.084;2023-02-12T06:49:04;99715.88;;;23.94;47.90
63708;BME280;67643;-34.198;22.084;2023-02-12T06:51:32;99713.41;;;24.12;48.58
63708;BME280;67643;-34.198;22.084;2023-02-12T06:54:01;99715.08;;;25.39;46.47
63708;BME280;67643;-34.198;22.084;2023-02-12T06:56:29;99718.68;;;24.49;47.01
63708;BME280;67643;-34.198;22.084;2023-02-12T06:58:58;99719.74;;;25.37;45.70
63708;BME280;67643;-34.198;22.084;2023-02-12T07:01:28;99723.02;;;25.02;46.45
63708;BME280;67643;-34.198;22.084;2023-02-12T07:03:58;99722.25;;;24.17;47.86
63708;BME280;67643;-34.198;22.084;2023-02-12T07:06:28;99717.92;;;24.24;47.85
63708;BME280;67643;-34.198;22.084;2023-02-12T07:08:57;99713.63;;;25.44;45.91
63708;BME280;67643;-34.198;22.084;2023-02-12T07:11:27;99717.71;;;24.65;47.26
63708;BME280;67643;-34.198;22.084;2023-02-12T07:13:56;99713.64;;;24.38;47.74
63708;BME280;67643;-34.198;22.084;2023-02-12T07:16:25;99713.83;;;25.31;46.28
63708;BME280;67643;-34.198;22.084;2023-02-12T07:18:54;99712.85;;;26.24;44.44
63708;BME280;67643;-34.198;22.084;2023-02-12T07:21:23;99715.94;;;26.21;44.40
63708;BME280;67643;-34.198;22.084;2023-02-12T07:23:53;99720.19;;;26.26;44.47
63708;BME280;67643;-34.198;22.084;2023-02-12T07:26:22;99717.42;;;26.13;44.62
63708;BME280;67643;-34.198;22.084;2023-02-12T07:28:50;99718.44;;;25.86;45.00
63708;BME280;67643;-34.198;22.084;2023-02-12T07:31:21;99720.86;;;25.73;44.84
63708;BME280;67643;-34.198;22.084;2023-02-12T07:33:53;99721.13;;;25.36;45.73
63708;BME280;67643;-34.198;22.084;2023-02-12T07:36:22;99723.49;;;25.43;45.52
63708;BME280;67643;-34.198;22.084;2023-02-12T07:38:51;99723.64;;;25.56;45.14
63708;BME280;67643;-34.198;22.084;2023-02-12T07:41:22;99718.98;;;25.99;44.36
63708;BME280;67643;-34.198;22.084;2023-02-12T07:43:54;99717.56;;;25.19;45.14
63708;BME280;67643;-34.198;22.084;2023-02-12T07:46:25;99722.46;;;25.45;45.17
63708;BME280;67643;-34.198;22.084;2023-02-12T07:48:54;99723.69;;;24.62;46.25
63708;BME280;67643;-34.198;22.084;2023-02-12T07:51:22;99720.53;;;25.62;44.80
63708;BME280;67643;-34.198;22.084;2023-02-12T07:53:51;99721.64;;;25.99;44.17
63708;BME280;67643;-34.198;22.084;2023-02-12T07:56:22;99724.70;;;25.40;45.54
63708;BME280;67643;-34.198;22.084;2023-02-12T07:58:52;99723.86;;;26.17;44.52
63708;BME280;67643;-34.198;22.084;2023-02-12T08:01:22;99720.63;;;25.54;44.48
63708;BME280;67643;-34.198;22.084;2023-02-12T08:03:52;99724.15;;;25.71;44.71
63708;BME280;67643;-34.198;22.084;2023-02-12T08:06:23;99719.50;;;25.55;45.26
63708;BME280;67643;-34.198;22.084;2023-02-12T08:08:52;99719.47;;;26.12;43.81
63708;BME280;67643;-34.198;22.084;2023-02-12T08:11:21;99722.72;;;26.08;44.31
63708;BME280;67643;-34.198;22.084;2023-02-12T08:13:51;99717.63;;;25.76;44.31
63708;BME280;67643;-34.198;22.084;2023-02-12T08:16:21;99721.61;;;25.32;44.97
63708;BME280;67643;-34.198;22.084;2023-02-12T08:18:51;99720.00;;;25.90;44.51
63708;BME280;67643;-34.198;22.084;2023-02-12T08:21:26;99716.85;;;25.84;44.20
63708;BME280;67643;-34.198;22.084;2023-02-12T08:23:56;99717.04;;;26.12;44.39
63708;BME280;67643;-34.198;22.084;2023-02-12T08:26:27;99716.15;;;25.94;44.33
63708;BME280;67643;-34.198;22.084;2023-02-12T08:28:58;99706.47;;;25.65;44.77
63708;BME280;67643;-34.198;22.084;2023-02-12T08:31:29;99712.57;;;26.11;44.67
63708;BME280;67643;-34.198;22.084;2023-02-12T08:33:59;99711.30;;;26.11;44.26
63708;BME280;67643;-34.198;22.084;2023-02-12T08:36:29;99713.96;;;25.73;44.80
63708;BME280;67643;-34.198;22.084;2023-02-12T08:38:58;99713.23;;;25.55;44.81
63708;BME280;67643;-34.198;22.084;2023-02-12T08:41:28;99714.28;;;25.00;46.04
63708;BME280;67643;-34.198;22.084;2023-02-12T08:43:59;99723.07;;;25.45;45.17
63708;BME280;67643;-34.198;22.084;2023-02-12T08:46:29;99710.23;;;25.65;44.93
63708;BME280;67643;-34.198;22.084;2023-02-12T08:49:00;99715.00;;;26.27;44.21
63708;BME280;67643;-34.198;22.084;2023-02-12T08:51:32;99707.29;;;24.98;45.51
63708;BME280;67643;-34.198;22.084;2023-02-12T08:54:02;99709.73;;;25.64;44.39
63708;BME280;67643;-34.198;22.084;2023-02-12T08:56:32;99711.47;;;25.99;44.34
63708;BME280;67643;-34.198;22.084;2023-02-12T08:59:03;99713.77;;;25.22;45.07
63708;BME280;67643;-34.198;22.084;2023-02-12T09:01:34;99713.27;;;25.46;44.65
63708;BME280;67643;-34.198;22.084;2023-02-12T09:04:04;99720.60;;;24.94;45.80
63708;BME280;67643;-34.198;22.084;2023-02-12T09:06:34;99715.78;;;25.90;44.43
63708;BME280;67643;-34.198;22.084;2023-02-12T09:09:03;99712.11;;;25.66;44.33
63708;BME280;67643;-34.198;22.084;2023-02-12T09:11:34;99719.51;;;25.47;43.43
63708;BME280;67643;-34.198;22.084;2023-02-12T09:14:06;99725.05;;;25.94;42.80
63708;BME280;67643;-34.198;22.084;2023-02-12T09:16:37;99718.39;;;25.57;43.19
63708;BME280;67643;-34.198;22.084;2023-02-12T09:19:07;99723.34;;;25.64;43.03
63708;BME280;67643;-34.198;22.084;2023-02-12T09:21:35;99723.77;;;25.97;42.42
63708;BME280;67643;-34.198;22.084;2023-02-12T09:24:05;99721.94;;;25.48;43.75
63708;BME280;67643;-34.198;22.084;2023-02-12T09:26:34;99722.31;;;25.90;42.41
63708;BME280;67643;-34.198;22.084;2023-02-12T09:29:04;99715.04;;;26.48;42.08
63708;BME280;67643;-34.198;22.084;2023-02-12T09:31:32;99717.68;;;26.13;42.62
63708;BME280;67643;-34.198;22.084;2023-02-12T09:34:03;99721.27;;;26.11;42.58
63708;BME280;67643;-34.198;22.084;2023-02-12T09:36:33;99714.66;;;26.34;42.29
63708;BME280;67643;-34.198;22.084;2023-02-12T09:39:02;99718.21;;;26.82;41.57
63708;BME280;67643;-34.198;22.084;2023-02-12T09:41:53;99719.74;;;26.44;42.14
63708;BME280;67643;-34.198;22.084;2023-02-12T09:44:34;99717.13;;;26.50;41.61
63708;BME280;67643;-34.198;22.084;2023-02-12T09:47:10;99713.62;;;26.11;42.34
63708;BME280;67643;-34.198;22.084;2023-02-12T09:49:53;99710.59;;;26.58;41.56
63708;BME280;67643;-34.198;22.084;2023-02-12T09:52:26;99706.70;;;25.37;43.40
63708;BME280;67643;-34.198;22.084;2023-02-12T09:54:56;99704.98;;;25.83;42.75
63708;BME280;67643;-34.198;22.084;2023-02-12T09:57:27;99703.78;;;26.18;42.53
63708;BME280;67643;-34.198;22.084;2023-02-12T10:00:00;99700.80;;;25.71;42.83
63708;BME280;67643;-34.198;22.084;2023-02-12T10:02:30;99697.80;;;26.29;42.05
63708;BME280;67643;-34.198;22.084;2023-02-12T10:04:59;99699.29;;;25.76;42.78
63708;BME280;67643;-34.198;22.084;2023-02-12T10:07:42;99701.18;;;25.81;42.55
63708;BME280;67643;-34.198;22.084;2023-02-12T10:10:33;99700.02;;;26.23;41.99
63708;BME280;67643;-34.198;22.084;2023-02-12T10:13:13;99703.10;;;26.28;41.87
63708;BME280;67643;-34.198;22.084;2023-02-12T10:15:54;99702.26;;;26.25;41.76
63708;BME280;67643;-34.198;22.084;2023-02-12T10:18:44;99704.87;;;26.17;41.84
63708;BME280;67643;-34.198;22.084;2023-02-12T10:21:34;99705.26;;;26.59;41.38
63708;BME280;67643;-34.198;22.084;2023-02-12T10:24:22;99700.10;;;26.68;41.57
63708;BME280;67643;-34.198;22.084;2023-02-12T10:26:58;99698.95;;;26.82;41.16
63708;BME280;67643;-34.198;22.084;2023-02-12T10:29:32;99698.33;;;26.51;41.74
63708;BME280;67643;-34.198;22.084;2023-02-12T10:32:11;99698.90;;;26.49;41.39
63708;BME280;67643;-34.198;22.084;2023-02-12T10:34:44;99696.17;;;26.21;41.08
63708;BME280;67643;-34.198;22.084;2023-02-12T10:37:29;99704.25;;;26.64;41.19
63708;BME280;67643;-34.198;22.084;2023-02-12T10:40:04;99700.93;;;26.66;41.10
63708;BME280;67643;-34.198;22.084;2023-02-12T10:42:39;99702.25;;;26.37;41.39
63708;BME280;67643;-34.198;22.084;2023-02-12T10:45:14;99704.80;;;26.53;41.26
63708;BME280;67643;-34.198;22.084;2023-02-12T10:47:44;99704.37;;;26.64;40.99
63708;BME280;67643;-34.198;22.084;2023-02-12T10:50:19;99704.48;;;26.68;41.12
63708;BME280;67643;-34.198;22.084;2023-02-12T10:52:53;99705.24;;;26.12;41.25
63708;BME280;67643;-34.198;22.084;2023-02-12T10:55:27;99704.21;;;26.89;41.18
63708;BME280;67643;-34.198;22.084;2023-02-12T10:57:57;99705.14;;;26.77;41.04
63708;BME280;67643;-34.198;22.084;2023-02-12T11:00:33;99704.78;;;26.66;41.07
63708;BME280;67643;-34.198;22.084;2023-02-12T11:03:08;99715.46;;;26.69;40.59
63708;BME280;67643;-34.198;22.084;2023-02-12T11:05:47;99715.50;;;26.83;40.69
63708;BME280;67643;-34.198;22.084;2023-02-12T11:08:34;99716.53;;;27.30;40.75
63708;BME280;67643;-34.198;22.084;2023-02-12T11:11:07;99712.71;;;26.62;40.85
63708;BME280;67643;-34.198;22.084;2023-02-12T11:13:38;99716.09;;;27.24;40.00
63708;BME280;67643;-34.198;22.084;2023-02-12T11:16:08;99709.73;;;26.93;39.86
63708;BME280;67643;-34.198;22.084;2023-02-12T11:18:38;99721.47;;;27.36;39.78
63708;BME280;67643;-34.198;22.084;2023-02-12T11:21:08;99720.81;;;26.62;40.52
63708;BME280;67643;-34.198;22.084;2023-02-12T11:23:39;99726.44;;;26.40;40.12
63708;BME280;67643;-34.198;22.084;2023-02-12T11:26:25;99722.08;;;25.98;40.48
63708;BME280;67643;-34.198;22.084;2023-02-12T11:28:56;99710.14;;;26.60;39.93
63708;BME280;67643;-34.198;22.084;2023-02-12T11:31:27;99712.49;;;26.37;40.12
63708;BME280;67643;-34.198;22.084;2023-02-12T11:34:15;99709.98;;;26.71;39.67
63708;BME280;67643;-34.198;22.084;2023-02-12T11:36:45;99723.63;;;26.61;39.52
63708;BME280;67643;-34.198;22.084;2023-02-12T11:39:20;99721.45;;;26.97;39.35
63708;BME280;67643;-34.198;22.084;2023-02-12T11:41:52;99710.63;;;26.06;40.18
63708;BME280;67643;-34.198;22.084;2023-02-12T11:44:25;99712.15;;;25.80;40.85
63708;BME280;67643;-34.198;22.084;2023-02-12T11:46:56;99707.34;;;26.01;40.23
63708;BME280;67643;-34.198;22.084;2023-02-12T11:49:28;99708.29;;;25.89;40.73
63708;BME280;67643;-34.198;22.084;2023-02-12T11:52:01;99699.10;;;26.10;39.99
63708;BME280;67643;-34.198;22.084;2023-02-12T11:54:33;99706.98;;;26.70;39.45
63708;BME280;67643;-34.198;22.084;2023-02-12T11:57:02;99709.43;;;26.68;39.56
63708;BME280;67643;-34.198;22.084;2023-02-12T11:59:34;99695.65;;;26.83;38.94
63708;BME280;67643;-34.198;22.084;2023-02-12T12:02:21;99704.36;;;26.57;39.41
63708;BME280;67643;-34.198;22.084;2023-02-12T12:04:53;99694.61;;;26.64;38.95
63708;BME280;67643;-34.198;22.084;2023-02-12T12:07:31;99697.21;;;27.00;38.57
63708;BME280;67643;-34.198;22.084;2023-02-12T12:10:10;99682.38;;;27.38;38.68
63708;BME280;67643;-34.198;22.084;2023-02-12T12:12:51;99692.57;;;27.21;39.02
63708;BME280;67643;-34.198;22.084;2023-02-12T12:15:25;99691.18;;;26.64;39.03
63708;BME280;67643;-34.198;22.084;2023-02-12T12:17:57;99691.45;;;27.14;38.42
63708;BME280;67643;-34.198;22.084;2023-02-12T12:20:30;99699.99;;;26.82;38.96
63708;BME280;67643;-34.198;22.084;2023-02-12T12:23:05;99695.75;;;27.57;37.81
63708;BME280;67643;-34.198;22.084;2023-02-12T12:25:48;99691.76;;;27.28;38.20
63708;BME280;67643;-34.198;22.084;2023-02-12T12:28:29;99697.38;;;27.50;37.99
63708;BME280;67643;-34.198;22.084;2023-02-12T12:31:06;99697.65;;;27.21;38.82
63708;BME280;67643;-34.198;22.084;2023-02-12T12:33:41;99698.45;;;27.36;38.68
63708;BME280;67643;-34.198;22.084;2023-02-12T12:37:04;99694.36;;;27.14;38.80
63708;BME280;67643;-34.198;22.084;2023-02-12T12:39:46;99696.72;;;27.55;38.48
63708;BME280;67643;-34.198;22.084;2023-02-12T12:43:08;99696.81;;;27.57;38.61
63708;BME280;67643;-34.198;22.084;2023-02-12T12:46:02;99697.46;;;27.39;38.88
63708;BME280;67643;-34.198;22.084;2023-02-12T12:48:47;99705.80;;;26.57;39.83
63708;BME280;67643;-34.198;22.084;2023-02-12T12:51:34;99708.87;;;27.24;39.55
63708;BME280;67643;-34.198;22.084;2023-02-12T12:54:23;99701.33;;;27.23;39.30
63708;BME280;67643;-34.198;22.084;2023-02-12T12:57:02;99709.68;;;27.70;39.11
63708;BME280;67643;-34.198;22.084;2023-02-12T12:59:50;99708.23;;;27.52;39.07
63708;BME280;67643;-34.198;22.084;2023-02-12T13:03:12;99718.53;;;27.61;39.46
63708;BME280;67643;-34.198;22.084;2023-02-12T13:06:17;99719.58;;;26.93;40.11
63708;BME280;67643;-34.198;22.084;2023-02-12T13:09:09;99718.20;;;26.68;40.63
63708;BME280;67643;-34.198;22.084;2023-02-12T13:11:50;99712.48;;;27.90;38.95
63708;BME280;67643;-34.198;22.084;2023-02-12T13:14:30;99710.55;;;27.01;40.39
63708;BME280;67643;-34.198;22.084;2023-02-12T13:17:09;99713.86;;;28.13;38.73